Nearby METAR Reports

 

KDVT - Phoenix/Deer Vly, Arizona, USA
Distance from station: SW 14mi, 22km
Updated: Fri, 25-Sep-2020 2:53am MST
Clear
Clear
 Wind from NNE
Wind: NNE 3 mph , 6 km/h
Temperature: 75°F , 24°C
Dew Point: 39°F , 4°C
Humidity: 27%
Barometer: 29.83 inHg , 1010.2 hPa
Clouds: Clear
Visibility: 10 miles , 16 km
2020/09/25 09:53 KDVT 250953Z AUTO 03003KT 10SM CLR 24/04 A2983 RMK AO2 SLP075 T02440044
KSDL - Scottsdale, Arizona, USA
Distance from station: S 15mi, 23km
Updated: Fri, 25-Sep-2020 2:53am MST
Clear
Clear
 Wind from calm
Wind: Calm
Temperature: 81°F , 27°C
Dew Point: 45°F , 7°C
Humidity: 28%
Barometer: 29.84 inHg , 1010.5 hPa
Clouds: Clear
Visibility: 10 miles , 16 km
2020/09/25 09:53 KSDL 250953Z AUTO 00000KT 10SM CLR 27/07 A2984 RMK AO2 SLP075 T02720067
KFFZ - Mesa/Falcon Fld, Arizona, USA
Distance from station: SSE 27mi, 44km
Updated: Fri, 25-Sep-2020 2:54am MST
Clear
Clear
 Wind from calm
Wind: Calm
Temperature: 79°F , 26°C
Dew Point: 46°F , 8°C
Humidity: 32%
Barometer: 29.83 inHg , 1010.2 hPa
Clouds: Clear
Visibility: 10 miles , 16 km
2020/09/25 09:54 KFFZ 250954Z AUTO 00000KT 10SM CLR 26/08 A2983 RMK AO2 SLP074 T02560078
 
KPHX - Phoenix/Sky Hrbr, Arizona, USA
Distance from station: SSW 28mi, 45km
Updated: Fri, 25-Sep-2020 2:51am MST
Clear
Clear
 Wind from calm
Wind: Calm
Temperature: 86°F , 30°C
Dew Point: 41°F , 5°C
Humidity: 20%
Barometer: 29.80 inHg , 1009.1 hPa
Clouds: Clear
Visibility: 10 miles , 16 km
2020/09/25 09:51 KPHX 250951Z 00000KT 10SM CLR 30/05 A2980 RMK AO2 SLP069 T03000050
KGEU - Glendale, Arizona, USA
Distance from station: SW 31mi, 49km
Updated: Thu, 24-Sep-2020 7:47pm MST
NOT Current
Clear
Clear
 Wind from SSW
Wind: SSW 7 mph , 11 km/h
Temperature: 97°F , 36°C
Dew Point: 39°F , 4°C
Humidity: 13%
Barometer: 29.78 inHg , 1008.5 hPa
Clouds: Clear
Visibility: 10 miles , 16 km
2020/09/25 02:47 KGEU 250247Z 21006KT 10SM SKC 36/04 A2978 RMK LAST
KLUF - Luke Afb/Glendal, Arizona, USA
Distance from station: SW 34mi, 55km
Updated: Fri, 25-Sep-2020 2:58am MST
Clear
Clear
 Wind from calm
Wind: Calm
Temperature: 79°F , 26°C
Dew Point: 41°F , 5°C
Humidity: 26%
Barometer: 29.80 inHg , 1009.1 hPa
Clouds: Clear
Visibility: 10 miles , 16 km
2020/09/25 09:58 KLUF 250958Z AUTO 00000KT 10SM CLR 26/05 A2980 RMK AO2 SLP076 T02550051 $
 
KGYR - Goodyear Municip, Arizona, USA
Distance from station: SW 39mi, 63km
Updated: Thu, 24-Sep-2020 8:47pm MST
NOT Current
Clear
Clear
 Wind from SSW
Wind: SSW 7 mph , 11 km/h
Temperature: 88°F , 31°C
Dew Point: 48°F , 9°C
Humidity: 25%
Barometer: 29.78 inHg , 1008.5 hPa
Clouds: Clear
Visibility: 10 miles , 16 km
2020/09/25 03:47 KGYR 250347Z 21006KT 10SM SKC 31/09 A2978 RMK LAST
KIWA - Chandler/Mesa, Arizona, USA
Distance from station: SSE 39mi, 63km
Updated: Fri, 25-Sep-2020 3:15am MST
Clear
Clear
 Wind from ESE
Wind: ESE 8 mph , 13 km/h
Temperature: 73°F , 23°C
Dew Point: 43°F , 6°C
Humidity: 33%
Barometer: 29.85 inHg , 1010.8 hPa
Clouds: Clear
Visibility: 10 miles , 16 km
2020/09/25 10:15 KIWA 251015Z AUTO 12007KT 10SM CLR 23/06 A2985 RMK AO2 T02330058
KPAN - Payson, Arizona, USA
Distance from station: NE 44mi, 70km
Updated: Fri, 25-Sep-2020 3:15am MST
Clear
Clear
 Wind from calm
Wind: Calm
Temperature: 63°F , 17°C
Dew Point: 34°F , 1°C
Humidity: 34%
Barometer: 30.14 inHg , 1020.7 hPa
Clouds: Clear
Visibility: 10 miles , 16 km
2020/09/25 10:15 KPAN 251015Z AUTO 00000KT 10SM CLR 17/01 A3014 RMK AO2